createdAt,value
2017-01-07T00:01:05.450Z,91.29
2017-01-07T00:02:14.133Z,92.24
2017-01-07T00:03:22.826Z,91.58
2017-01-07T00:04:31.521Z,91.67
2017-01-07T00:05:40.211Z,91.58
2017-01-07T00:06:48.898Z,91.67
2017-01-07T00:07:57.596Z,91.58
2017-01-07T00:09:06.284Z,91.67
2017-01-07T00:10:14.972Z,92.05
2017-01-07T00:11:23.661Z,91.96
2017-01-07T00:12:32.354Z,92.33
2017-01-07T00:13:41.039Z,91.86
2017-01-07T00:14:49.723Z,92.14
2017-01-07T00:15:58.414Z,92.14
2017-01-07T00:17:07.107Z,91.77
2017-01-07T00:18:15.791Z,92.24
2017-01-07T00:19:24.477Z,92.14
2017-01-07T00:20:33.163Z,92.14
2017-01-07T00:21:41.851Z,91.29
2017-01-07T00:22:50.537Z,92.24
2017-01-07T00:23:59.226Z,91.86
2017-01-07T00:25:07.918Z,92.43
2017-01-07T00:26:16.602Z,92.24
2017-01-07T00:27:25.305Z,92.52
2017-01-07T00:28:33.994Z,92.52
2017-01-07T00:29:42.688Z,92.52
2017-01-07T00:30:51.374Z,92.33
2017-01-07T00:32:00.057Z,92.52
2017-01-07T00:33:08.742Z,92.61
2017-01-07T00:34:17.432Z,92.61
2017-01-07T00:35:26.118Z,92.61
2017-01-07T00:36:34.801Z,92.61
2017-01-07T00:37:43.484Z,92.43
2017-01-07T00:38:52.189Z,92.43
2017-01-07T00:40:00.876Z,92.52
2017-01-07T00:41:09.575Z,92.43
2017-01-07T00:42:18.278Z,92.24
2017-01-07T00:43:26.961Z,91.86
2017-01-07T00:44:35.649Z,92.24
2017-01-07T00:45:44.333Z,92.05
2017-01-07T00:46:53.023Z,92.43
2017-01-07T00:48:01.715Z,92.14
2017-01-07T00:49:10.407Z,92.14
2017-01-07T00:50:19.091Z,92.43
2017-01-07T00:51:27.777Z,87.41
2017-01-07T00:52:36.470Z,83.06
2017-01-07T00:53:45.155Z,82.17
2017-01-07T00:54:53.938Z,82.98
2017-01-07T00:56:02.624Z,84.49
2017-01-07T00:57:11.317Z,86.9
2017-01-07T00:58:20.029Z,87.94
2017-01-07T00:59:28.720Z,89.73
2017-01-07T01:00:37.453Z,91.3
2017-01-07T01:01:46.144Z,92.33
2017-01-07T01:02:54.833Z,93.18
2017-01-07T01:04:03.519Z,93.47
2017-01-07T01:05:12.203Z,93.47
2017-01-07T01:06:20.908Z,93.84
2017-01-07T01:07:29.593Z,94.32
2017-01-07T01:08:38.283Z,94.03
2017-01-07T01:09:46.977Z,94.89
2017-01-07T01:10:55.667Z,95.45
2017-01-07T01:12:04.357Z,96.68
2017-01-07T01:13:13.051Z,98.57
2017-01-07T01:14:21.741Z,99.32
2017-01-07T01:15:30.429Z,98.47
2017-01-07T01:16:39.119Z,98.75
2017-01-07T01:17:47.809Z,99.32
2017-01-07T01:18:56.500Z,98.75
2017-01-07T01:20:05.188Z,99.08
2017-01-07T01:21:13.871Z,97.48
2017-01-07T01:22:22.561Z,96.44
2017-01-07T01:23:31.247Z,95.97
2017-01-07T01:24:39.930Z,95.87
2017-01-07T01:25:48.613Z,96.44
2017-01-07T01:26:57.296Z,96.44
2017-01-07T01:28:05.980Z,96.25
2017-01-07T01:29:14.667Z,96.06
2017-01-07T01:30:23.355Z,96.82
2017-01-07T01:31:32.043Z,97.2
2017-01-07T01:32:40.737Z,97.48
2017-01-07T01:33:49.422Z,97.2
2017-01-07T01:34:58.106Z,97.29
2017-01-07T01:36:06.795Z,97.29
2017-01-07T01:37:15.478Z,97.1
2017-01-07T01:38:24.165Z,97.2
2017-01-07T01:39:32.845Z,96.91
2017-01-07T01:40:41.536Z,96.91
2017-01-07T01:41:50.236Z,96.44
2017-01-07T01:42:58.921Z,96.63
2017-01-07T01:44:07.612Z,97.01
2017-01-07T01:45:16.297Z,96.25
2017-01-07T01:46:24.988Z,97.01
2017-01-07T01:47:33.675Z,96.91
2017-01-07T01:48:42.361Z,97.39
2017-01-07T01:49:51.076Z,97.29
2017-01-07T01:50:59.761Z,97.58
2017-01-07T01:52:08.444Z,96.44
2017-01-07T01:53:17.129Z,96.35
2017-01-07T01:54:25.812Z,95.97
2017-01-07T01:55:34.501Z,96.25
2017-01-07T01:56:43.185Z,95.68
2017-01-07T01:57:51.871Z,95.12
2017-01-07T01:59:00.556Z,95.12
2017-01-07T02:00:09.246Z,95.59
2017-01-07T02:01:17.929Z,95.68
2017-01-07T02:02:26.621Z,96.06
2017-01-07T02:03:35.303Z,96.63
2017-01-07T02:04:44.001Z,96.35
2017-01-07T02:05:52.686Z,96.35
2017-01-07T02:07:01.369Z,95.87
2017-01-07T02:08:10.055Z,96.16
2017-01-07T02:09:18.741Z,96.06
2017-01-07T02:10:27.425Z,95.5
2017-01-07T02:11:36.112Z,95.4
2017-01-07T02:12:44.794Z,95.87
2017-01-07T02:13:53.482Z,95.68
2017-01-07T02:15:02.164Z,95.97
2017-01-07T02:16:11.250Z,95.5
2017-01-07T02:17:19.937Z,96.25
2017-01-07T02:18:28.623Z,95.5
2017-01-07T02:19:37.317Z,95.73
2017-01-07T02:20:46.018Z,95.5
2017-01-07T02:21:54.704Z,95.54
2017-01-07T02:23:03.387Z,95.73
2017-01-07T02:24:12.068Z,95.5
2017-01-07T02:25:20.755Z,95.5
2017-01-07T02:26:29.443Z,95.87
2017-01-07T02:27:38.133Z,95.17
2017-01-07T02:28:46.823Z,94.93
2017-01-07T02:29:55.507Z,94.7
2017-01-07T02:31:04.189Z,94.6
2017-01-07T02:32:12.879Z,94.32
2017-01-07T02:33:21.575Z,94.41
2017-01-07T02:34:30.274Z,94.89
2017-01-07T02:35:38.962Z,95.17
2017-01-07T02:36:47.645Z,95.17
2017-01-07T02:37:56.329Z,95.17
2017-01-07T02:39:05.012Z,95.07
2017-01-07T02:40:13.706Z,95.17
2017-01-07T02:41:22.392Z,95.07
2017-01-07T02:42:31.081Z,95.07
2017-01-07T02:43:39.772Z,95.07
2017-01-07T02:44:48.462Z,94.98
2017-01-07T02:45:57.152Z,94.98
2017-01-07T02:47:05.837Z,94.6
2017-01-07T02:48:14.526Z,94.98
2017-01-07T02:49:23.207Z,94.6
2017-01-07T02:50:31.894Z,95.07
2017-01-07T02:51:40.581Z,95.64
2017-01-07T02:52:49.270Z,95.64
2017-01-07T02:53:57.962Z,97.24
2017-01-07T02:55:06.649Z,97.81
2017-01-07T02:56:15.327Z,98.66
2017-01-07T02:57:24.010Z,98.75
2017-01-07T02:58:32.695Z,98.47
2017-01-07T02:59:41.385Z,97.81
2017-01-07T03:00:50.071Z,97.62
2017-01-07T03:01:58.780Z,96.49
2017-01-07T03:03:07.468Z,96.58
2017-01-07T03:04:16.160Z,96.96
2017-01-07T03:05:24.849Z,97.15
2017-01-07T03:06:33.537Z,97.34
2017-01-07T03:07:42.615Z,97.91
2017-01-07T03:08:51.300Z,97.24
2017-01-07T03:09:59.992Z,96.68
2017-01-07T03:11:08.685Z,97.43
2017-01-07T03:12:17.368Z,97.43
2017-01-07T03:13:26.054Z,97.62
2017-01-07T03:14:34.741Z,98.38
2017-01-07T03:15:43.427Z,98.47
2017-01-07T03:16:52.119Z,98.75
2017-01-07T03:18:00.819Z,97.53
2017-01-07T03:19:09.502Z,97.62
2017-01-07T03:20:18.189Z,97.72
2017-01-07T03:21:26.877Z,97.72
2017-01-07T03:22:35.560Z,98
2017-01-07T03:23:44.545Z,97.43
2017-01-07T03:24:53.229Z,97.24
2017-01-07T03:26:01.912Z,97.19
2017-01-07T03:27:10.597Z,97.19
2017-01-07T03:28:19.282Z,96.72
2017-01-07T03:29:28.319Z,96.63
2017-01-07T03:30:37.012Z,97.29
2017-01-07T03:31:45.692Z,97.29
2017-01-07T03:32:54.382Z,96.63
2017-01-07T03:34:03.102Z,96.53
2017-01-07T03:35:11.839Z,95.78
2017-01-07T03:36:20.520Z,96.15
2017-01-07T03:37:29.204Z,96.34
2017-01-07T03:38:37.915Z,97.48
2017-01-07T03:39:46.602Z,97.67
2017-01-07T03:40:55.339Z,97.48
2017-01-07T03:42:04.029Z,97
2017-01-07T03:43:12.717Z,97.29
2017-01-07T03:44:21.404Z,97.1
2017-01-07T03:45:30.085Z,97.19
2017-01-07T03:46:38.868Z,97.76
2017-01-07T03:47:47.545Z,97.85
2017-01-07T03:48:56.261Z,97.85
2017-01-07T03:50:04.975Z,97.95
2017-01-07T03:51:13.659Z,97.48
2017-01-07T03:52:22.392Z,97.76
2017-01-07T03:53:31.075Z,98.14
2017-01-07T03:54:39.765Z,97.85
2017-01-07T03:55:48.452Z,97.95
2017-01-07T03:56:57.134Z,98.04
2017-01-07T03:58:05.868Z,98.04
2017-01-07T03:59:14.548Z,97.85
2017-01-07T04:00:23.263Z,97.48
2017-01-07T04:01:31.944Z,97.48
2017-01-07T04:02:40.623Z,96.72
2017-01-07T04:03:49.356Z,97
2017-01-07T04:04:58.441Z,97.19
2017-01-07T04:06:07.129Z,97.48
2017-01-07T04:07:15.817Z,97.38
2017-01-07T04:08:24.505Z,97.19
2017-01-07T04:09:38.345Z,97.57
2017-01-07T04:10:47.029Z,97.19
2017-01-07T04:11:55.713Z,97.19
2017-01-07T04:13:04.396Z,97
2017-01-07T04:14:13.084Z,97.19
2017-01-07T04:15:22.067Z,97.29
2017-01-07T04:16:30.744Z,97.48
2017-01-07T04:17:39.438Z,97.48
2017-01-07T04:18:48.121Z,97.19
2017-01-07T04:19:56.803Z,97.38
2017-01-07T04:21:05.531Z,96.91
2017-01-07T04:22:14.221Z,97
2017-01-07T04:23:22.905Z,97.29
2017-01-07T04:24:31.591Z,97
2017-01-07T04:25:40.303Z,97.38
2017-01-07T04:26:49.043Z,97.19
2017-01-07T04:27:57.726Z,97.19
2017-01-07T04:29:06.409Z,97.38
2017-01-07T04:30:15.092Z,96.91
2017-01-07T04:31:23.770Z,97.29
2017-01-07T04:32:32.530Z,96.91
2017-01-07T04:33:41.217Z,97.1
2017-01-07T04:34:49.904Z,97.48
2017-01-07T04:35:58.596Z,97.57
2017-01-07T04:37:07.281Z,97.1
2017-01-07T04:38:16.016Z,97.19
2017-01-07T04:39:24.707Z,97.48
2017-01-07T04:40:33.388Z,97.38
2017-01-07T04:41:42.071Z,97.76
2017-01-07T04:42:50.752Z,97.95
2017-01-07T04:43:59.490Z,97.76
2017-01-07T04:45:08.176Z,98.14
2017-01-07T04:46:16.863Z,98.23
2017-01-07T04:47:25.542Z,97.85
2017-01-07T04:48:34.223Z,97.76
2017-01-07T04:49:42.961Z,97.85
2017-01-07T04:50:51.647Z,97.85
2017-01-07T04:52:00.728Z,97.76
2017-01-07T04:53:09.418Z,97.76
2017-01-07T04:54:18.101Z,98.52
2017-01-07T04:55:26.843Z,98.71
2017-01-07T04:56:35.524Z,97.48
2017-01-07T04:57:44.210Z,97.76
2017-01-07T04:58:52.895Z,97.85
2017-01-07T05:00:01.579Z,97.85
2017-01-07T05:01:10.316Z,97.57
2017-01-07T05:02:19.007Z,97.95
2017-01-07T05:03:27.692Z,97.48
2017-01-07T05:04:36.378Z,97.48
2017-01-07T05:05:45.070Z,97.48
2017-01-07T05:06:53.838Z,97.19
2017-01-07T05:08:02.517Z,97.48
2017-01-07T05:09:11.621Z,97.95
2017-01-07T05:10:20.308Z,97.76
2017-01-07T05:11:28.996Z,97.48
2017-01-07T05:12:37.735Z,97.76
2017-01-07T05:13:46.419Z,97.76
2017-01-07T05:14:55.106Z,97.38
2017-01-07T05:16:03.790Z,97.29
2017-01-07T05:17:12.470Z,96.91
2017-01-07T05:18:21.199Z,96.25
2017-01-07T05:19:29.886Z,96.63
2017-01-07T05:20:38.569Z,95.4
2017-01-07T05:21:47.253Z,95.21
2017-01-07T05:22:55.937Z,95.97
2017-01-07T05:24:04.670Z,96.34
2017-01-07T05:25:13.353Z,95.78
2017-01-07T05:26:22.039Z,96.63
2017-01-07T05:27:30.730Z,97
2017-01-07T05:28:39.417Z,98.42
2017-01-07T05:29:48.146Z,99.37
2017-01-07T05:30:56.828Z,99.55
2017-01-07T05:32:05.513Z,98.9
2017-01-07T05:33:14.200Z,98.52
2017-01-07T05:34:22.880Z,98.23
2017-01-07T05:35:31.617Z,98.42
2017-01-07T05:36:40.299Z,98.52
2017-01-07T05:37:48.984Z,99.37
2017-01-07T05:38:57.674Z,98.71
2017-01-07T05:40:06.362Z,97.48
2017-01-07T05:41:15.098Z,97
2017-01-07T05:42:23.784Z,97.38
2017-01-07T05:43:32.481Z,97.48
2017-01-07T05:44:41.168Z,97.05
2017-01-07T05:45:49.884Z,96.95
2017-01-07T05:46:58.628Z,96.91
2017-01-07T05:48:07.722Z,96.3
2017-01-07T05:49:16.408Z,97.33
2017-01-07T05:50:25.090Z,97.52
2017-01-07T05:51:33.833Z,97.43
2017-01-07T05:52:42.566Z,97.52
2017-01-07T05:53:51.247Z,97.14
2017-01-07T05:54:59.931Z,97.52
2017-01-07T05:56:08.614Z,97.33
2017-01-07T05:57:17.304Z,96.95
2017-01-07T05:58:26.046Z,97.05
2017-01-07T05:59:34.738Z,97.24
2017-01-07T06:00:43.426Z,97.05
2017-01-07T06:01:52.105Z,97.52
2017-01-07T06:03:00.788Z,97.33
2017-01-07T06:04:09.522Z,97.61
2017-01-07T06:05:18.231Z,99.13
2017-01-07T06:06:26.918Z,99.79
2017-01-07T06:07:35.604Z,99.98
2017-01-07T06:08:44.288Z,99.99
2017-01-07T06:09:53.022Z,99.79
2017-01-07T06:11:01.706Z,99.79
2017-01-07T06:12:10.388Z,99.6
2017-01-07T06:13:19.069Z,99.41
2017-01-07T06:14:27.754Z,98.56
2017-01-07T06:15:36.492Z,98.56
2017-01-07T06:16:45.181Z,98.65
2017-01-07T06:17:53.902Z,98.56
2017-01-07T06:19:02.589Z,98.56
2017-01-07T06:20:11.269Z,99.6
2017-01-07T06:21:19.955Z,99.99
2017-01-07T06:22:28.641Z,99.88
2017-01-07T06:23:37.329Z,99.51
2017-01-07T06:24:46.011Z,99.99
2017-01-07T06:25:54.705Z,99.99
2017-01-07T06:27:03.391Z,99.99
2017-01-07T06:28:12.076Z,99.99
2017-01-07T06:29:20.786Z,99.69
2017-01-07T06:30:29.468Z,99.98
2017-01-07T06:31:38.151Z,99.88
2017-01-07T06:32:46.837Z,99.13
2017-01-07T06:33:55.520Z,99.13
2017-01-07T06:35:04.212Z,99.13
2017-01-07T06:36:12.900Z,99.22
2017-01-07T06:37:21.600Z,99.41
2017-01-07T06:38:30.285Z,99.32
2017-01-07T06:39:38.967Z,99.03
2017-01-07T06:40:47.652Z,98.94
2017-01-07T06:41:56.339Z,99.32
2017-01-07T06:43:05.024Z,99.99
2017-01-07T06:44:13.709Z,99.99
2017-01-07T06:45:22.388Z,99.99
2017-01-07T06:46:31.084Z,99.99
2017-01-07T06:47:39.772Z,99.22
2017-01-07T06:48:48.451Z,98.65
2017-01-07T06:49:57.129Z,98.56
2017-01-07T06:51:05.821Z,98.65
2017-01-07T06:52:14.509Z,98.37
2017-01-07T06:53:23.193Z,99.13
2017-01-07T06:54:31.878Z,99.22
2017-01-07T06:55:40.564Z,98.75
2017-01-07T06:56:49.249Z,98.84
2017-01-07T06:57:57.933Z,99.22
2017-01-07T06:59:06.615Z,99.99
2017-01-07T07:00:15.299Z,99.99
2017-01-07T07:01:23.979Z,99.99
2017-01-07T07:02:32.664Z,99.99
2017-01-07T07:03:41.348Z,99.99
2017-01-07T07:04:50.029Z,99.99
2017-01-07T07:05:58.715Z,99.99
2017-01-07T07:07:07.399Z,99.99
2017-01-07T07:08:16.079Z,99.99
2017-01-07T07:09:24.759Z,99.99
2017-01-07T07:10:33.442Z,99.99
2017-01-07T07:11:42.125Z,99.99
2017-01-07T07:12:50.813Z,99.99
2017-01-07T07:13:59.498Z,99.99
2017-01-07T07:15:08.611Z,99.99
2017-01-07T07:16:17.304Z,99.99
2017-01-07T07:17:25.990Z,99.99
2017-01-07T07:18:34.675Z,99.99
2017-01-07T07:19:43.355Z,99.99
2017-01-07T07:20:52.061Z,99.99
2017-01-07T07:22:00.746Z,99.99
2017-01-07T07:23:09.430Z,99.99
2017-01-07T07:24:18.110Z,99.99
2017-01-07T07:25:26.794Z,99.99
2017-01-07T07:26:35.480Z,99.99
2017-01-07T07:27:44.559Z,99.99
2017-01-07T07:28:53.236Z,99.99
2017-01-07T07:30:01.925Z,99.99
2017-01-07T07:31:10.603Z,99.99
2017-01-07T07:32:19.308Z,99.99
2017-01-07T07:33:27.989Z,99.99
2017-01-07T07:34:36.671Z,99.99
2017-01-07T07:35:45.353Z,99.99
2017-01-07T07:36:54.030Z,99.99
2017-01-07T07:38:02.716Z,99.99
2017-01-07T07:39:11.403Z,99.99
2017-01-07T07:40:20.083Z,99.99
2017-01-07T07:41:28.772Z,99.99
2017-01-07T07:42:37.461Z,99.99
2017-01-07T07:43:46.144Z,99.99
2017-01-07T07:44:54.830Z,99.99
2017-01-07T07:46:03.516Z,99.99
2017-01-07T07:47:12.196Z,99.99
2017-01-07T07:48:20.920Z,99.99
2017-01-07T07:49:29.604Z,99.99
2017-01-07T07:50:38.293Z,99.99
2017-01-07T07:51:46.977Z,99.99
2017-01-07T07:52:55.661Z,99.79
2017-01-07T07:54:04.344Z,99.6
2017-01-07T07:55:13.029Z,99.98
2017-01-07T07:56:21.719Z,99.88
2017-01-07T07:57:30.403Z,99.98
2017-01-07T07:58:39.085Z,99.04
2017-01-07T07:59:47.771Z,99.41
2017-01-07T08:00:56.457Z,99.32
2017-01-07T08:02:05.139Z,99.32
2017-01-07T08:03:13.821Z,99.41
2017-01-07T08:04:22.502Z,98.38
2017-01-07T08:05:31.187Z,98.57
2017-01-07T08:06:39.895Z,98.28
2017-01-07T08:07:48.579Z,97.81
2017-01-07T08:08:57.287Z,97.91
2017-01-07T08:10:05.984Z,97.48
2017-01-07T08:11:14.673Z,96.91
2017-01-07T08:12:23.358Z,96.44
2017-01-07T08:13:32.044Z,96.81
2017-01-07T08:14:40.731Z,97.19
2017-01-07T08:15:49.416Z,98.14
2017-01-07T08:16:58.102Z,97.29
2017-01-07T08:18:06.783Z,97.19
2017-01-07T08:19:15.470Z,97.38
2017-01-07T08:20:24.150Z,97.85
2017-01-07T08:21:32.837Z,97.76
2017-01-07T08:22:41.516Z,97.95
2017-01-07T08:23:50.203Z,97.85
2017-01-07T08:24:58.888Z,97.85
2017-01-07T08:26:07.570Z,98.71
2017-01-07T08:27:16.269Z,98.8
2017-01-07T08:28:24.963Z,98.8
2017-01-07T08:29:33.644Z,98.8
2017-01-07T08:30:42.328Z,99.84
2017-01-07T08:31:51.010Z,99.55
2017-01-07T08:32:59.692Z,99.46
2017-01-07T08:34:08.404Z,99.84
2017-01-07T08:35:17.089Z,98.99
2017-01-07T08:36:25.797Z,98.9
2017-01-07T08:37:34.482Z,98.61
2017-01-07T08:38:43.561Z,98.8
2017-01-07T08:39:52.242Z,98.52
2017-01-07T08:41:00.925Z,97.95
2017-01-07T08:42:09.611Z,98.04
2017-01-07T08:43:18.297Z,97.38
2017-01-07T08:44:26.983Z,97.48
2017-01-07T08:45:35.663Z,97.1
2017-01-07T08:46:44.354Z,97.29
2017-01-07T08:47:53.066Z,97.48
2017-01-07T08:49:01.749Z,97.29
2017-01-07T08:50:10.430Z,96.81
2017-01-07T08:51:19.116Z,96.81
2017-01-07T08:52:27.797Z,97.19
2017-01-07T08:53:36.481Z,98.04
2017-01-07T08:54:45.169Z,97.76
2017-01-07T08:55:53.851Z,97.1
2017-01-07T08:57:02.537Z,97.38
2017-01-07T08:58:11.221Z,97.76
2017-01-07T08:59:19.904Z,97.76
2017-01-07T09:00:28.610Z,97.76
2017-01-07T09:01:37.290Z,98.9
2017-01-07T09:02:45.972Z,99.37
2017-01-07T09:03:54.657Z,98.9
2017-01-07T09:05:03.338Z,98.42
2017-01-07T09:06:12.023Z,98.71
2017-01-07T09:07:20.704Z,98.52
2017-01-07T09:08:29.386Z,98.42
2017-01-07T09:09:38.070Z,98.52
2017-01-07T09:10:46.754Z,98.99
2017-01-07T09:11:55.439Z,98.8
2017-01-07T09:13:04.132Z,98.33
2017-01-07T09:14:12.833Z,98.42
2017-01-07T09:15:21.517Z,97.76
2017-01-07T09:16:30.206Z,98.14
2017-01-07T09:17:38.889Z,98.14
2017-01-07T09:18:47.579Z,97.76
2017-01-07T09:19:56.260Z,97.67
2017-01-07T09:21:04.945Z,98.14
2017-01-07T09:22:13.631Z,98.23
2017-01-07T09:23:22.310Z,98.04
2017-01-07T09:24:30.998Z,97.85
2017-01-07T09:25:39.680Z,97.95
2017-01-07T09:26:48.363Z,97.67
2017-01-07T09:27:57.050Z,96.34
2017-01-07T09:29:05.733Z,96.63
2017-01-07T09:30:14.419Z,96.34
2017-01-07T09:31:23.103Z,96.06
2017-01-07T09:32:31.790Z,96.53
2017-01-07T09:33:40.473Z,96.53
2017-01-07T09:34:49.164Z,95.87
2017-01-07T09:35:57.899Z,95.59
2017-01-07T09:37:06.584Z,95.4
2017-01-07T09:38:15.271Z,95.5
2017-01-07T09:39:23.957Z,95.59
2017-01-07T09:40:32.654Z,95.97
2017-01-07T09:41:41.340Z,96.39
2017-01-07T09:42:50.030Z,96.39
2017-01-07T09:43:58.712Z,96.39
2017-01-07T09:45:07.401Z,95.83
2017-01-07T09:46:16.088Z,94.98
2017-01-07T09:47:24.799Z,94.98
2017-01-07T09:48:33.488Z,94.89
2017-01-07T09:49:42.197Z,94.51
2017-01-07T09:50:50.880Z,94.13
2017-01-07T09:51:59.569Z,93.56
2017-01-07T09:53:08.261Z,93.56
2017-01-07T09:54:16.953Z,93.37
2017-01-07T09:55:25.633Z,93.84
2017-01-07T09:56:34.319Z,93.84
2017-01-07T09:57:42.999Z,93.56
2017-01-07T09:58:51.687Z,93.37
2017-01-07T10:00:00.371Z,92.43
2017-01-07T10:01:09.056Z,92.8
2017-01-07T10:02:17.738Z,92.9
2017-01-07T10:03:26.424Z,92.9
2017-01-07T10:04:35.105Z,92.9
2017-01-07T10:05:43.798Z,92.43
2017-01-07T10:06:52.482Z,92.61
2017-01-07T10:08:01.194Z,92.14
2017-01-07T10:09:09.878Z,92.52
2017-01-07T10:10:18.563Z,92.61
2017-01-07T10:11:27.263Z,92.61
2017-01-07T10:12:35.951Z,92.8
2017-01-07T10:13:44.641Z,92.61
2017-01-07T10:14:53.333Z,92.52
2017-01-07T10:16:02.017Z,92.33
2017-01-07T10:17:10.704Z,92.33
2017-01-07T10:18:19.393Z,92.33
2017-01-07T10:19:28.084Z,92.24
2017-01-07T10:20:36.769Z,91.67
2017-01-07T10:21:45.460Z,91.58
2017-01-07T10:22:54.154Z,91.2
2017-01-07T10:24:02.841Z,91.49
2017-01-07T10:25:11.530Z,91.11
2017-01-07T10:26:20.213Z,91.58
2017-01-07T10:27:28.894Z,91.96
2017-01-07T10:28:37.578Z,91.3
2017-01-07T10:29:46.264Z,91.67
2017-01-07T10:30:54.948Z,91.11
2017-01-07T10:32:03.638Z,91.01
2017-01-07T10:33:12.319Z,90.59
2017-01-07T10:34:21.002Z,90.77
2017-01-07T10:35:29.683Z,90.4
2017-01-07T10:36:38.369Z,90.02
2017-01-07T10:37:47.052Z,90.11
2017-01-07T10:38:55.732Z,89.17
2017-01-07T10:40:04.416Z,89.83
2017-01-07T10:41:13.102Z,89.36
2017-01-07T10:42:21.801Z,88.89
2017-01-07T10:43:30.487Z,88.6
2017-01-07T10:44:39.169Z,88.7
2017-01-07T10:45:47.852Z,88.51
2017-01-07T10:46:56.537Z,88.32
2017-01-07T10:48:05.225Z,87.94
2017-01-07T10:49:13.913Z,88.51
2017-01-07T10:50:22.600Z,88.51
2017-01-07T10:51:31.282Z,88.04
2017-01-07T10:52:39.970Z,88.13
2017-01-07T10:53:48.676Z,88.32
2017-01-07T10:54:57.364Z,88.7
2017-01-07T10:56:06.049Z,88.79
2017-01-07T10:57:14.735Z,88.7
2017-01-07T10:58:23.422Z,88.42
2017-01-07T10:59:32.109Z,88.42
2017-01-07T11:00:40.794Z,88.51
2017-01-07T11:01:49.523Z,88.51
2017-01-07T11:02:58.219Z,88.23
2017-01-07T11:04:06.909Z,87.94
2017-01-07T11:05:15.598Z,86.99
2017-01-07T11:06:24.682Z,86.52
2017-01-07T11:07:33.371Z,86.9
2017-01-07T11:08:42.079Z,87.71
2017-01-07T11:09:50.770Z,88.28
2017-01-07T11:10:59.459Z,88.51
2017-01-07T11:12:08.184Z,88.42
2017-01-07T11:13:16.869Z,88.04
2017-01-07T11:14:25.561Z,88.42
2017-01-07T11:15:34.248Z,87.94
2017-01-07T11:16:42.933Z,87.85
2017-01-07T11:17:51.623Z,87.94
2017-01-07T11:19:00.313Z,87.94
2017-01-07T11:20:09.026Z,87.85
2017-01-07T11:21:17.709Z,88.51
2017-01-07T11:22:26.393Z,88.32
2017-01-07T11:23:35.079Z,88.51
2017-01-07T11:24:43.768Z,88.23
2017-01-07T11:25:52.456Z,88.32
2017-01-07T11:27:01.540Z,88.51
2017-01-07T11:28:10.230Z,88.51
2017-01-07T11:29:18.921Z,88.32
2017-01-07T11:30:27.608Z,87.75
2017-01-07T11:31:36.290Z,88.13
2017-01-07T11:32:44.975Z,87.75
2017-01-07T11:33:53.667Z,87.66
2017-01-07T11:35:02.353Z,87.56
2017-01-07T11:36:11.038Z,87.28
2017-01-07T11:37:19.729Z,87.56
2017-01-07T11:38:28.420Z,87.09
2017-01-07T11:39:37.106Z,87.37
2017-01-07T11:40:45.796Z,87.47
2017-01-07T11:41:54.509Z,87.28
2017-01-07T11:43:03.191Z,86.99
2017-01-07T11:44:11.876Z,86.99
2017-01-07T11:45:20.555Z,87.56
2017-01-07T11:46:29.248Z,87.28
2017-01-07T11:47:37.932Z,87.47
2017-01-07T11:48:46.619Z,87.09
2017-01-07T11:49:55.306Z,87.37
2017-01-07T11:51:03.995Z,86.9
2017-01-07T11:52:12.685Z,87.09
2017-01-07T11:53:21.383Z,87.09
2017-01-07T11:54:30.071Z,87.37
2017-01-07T11:55:38.762Z,87.28
2017-01-07T11:56:47.446Z,86.71
2017-01-07T11:57:56.134Z,87.66
2017-01-07T11:59:04.822Z,86.99
2017-01-07T12:00:13.506Z,87.94
2017-01-07T12:01:22.192Z,88.04
2017-01-07T12:02:30.879Z,87.94
2017-01-07T12:03:39.563Z,88.42
2017-01-07T12:04:48.252Z,87.85
2017-01-07T12:05:56.937Z,87.85
2017-01-07T12:07:05.617Z,87.94
2017-01-07T12:08:14.332Z,87.85
2017-01-07T12:09:23.017Z,87.47
2017-01-07T12:10:31.710Z,86.99
2017-01-07T12:11:40.402Z,86.62
2017-01-07T12:12:49.088Z,86.52
2017-01-07T12:13:57.779Z,86.43
2017-01-07T12:15:06.467Z,85.77
2017-01-07T12:16:15.153Z,86.05
2017-01-07T12:17:23.845Z,86.52
2017-01-07T12:18:32.537Z,86.43
2017-01-07T12:19:41.227Z,86.99
2017-01-07T12:20:49.918Z,86.62
2017-01-07T12:21:58.605Z,85.96
2017-01-07T12:23:07.292Z,86.38
2017-01-07T12:24:15.975Z,86.29
2017-01-07T12:25:24.662Z,85.24
2017-01-07T12:26:33.354Z,85.24
2017-01-07T12:27:42.036Z,85.3
2017-01-07T12:28:50.720Z,85.3
2017-01-07T12:29:59.413Z,85.58
2017-01-07T12:31:08.101Z,85.68
2017-01-07T12:32:16.792Z,86.15
2017-01-07T12:33:25.487Z,86.15
2017-01-07T12:34:34.171Z,85.96
2017-01-07T12:35:42.859Z,86.05
2017-01-07T12:36:51.555Z,86.33
2017-01-07T12:38:00.251Z,85.86
2017-01-07T12:39:08.941Z,85.77
2017-01-07T12:40:17.632Z,86.24
2017-01-07T12:41:26.318Z,85.77
2017-01-07T12:42:35.004Z,85.86
2017-01-07T12:43:43.694Z,85.86
2017-01-07T12:44:52.386Z,85.68
2017-01-07T12:46:01.076Z,85.53
2017-01-07T12:47:09.777Z,85.24
2017-01-07T12:48:18.502Z,84.77
2017-01-07T12:49:27.199Z,84.49
2017-01-07T12:50:35.891Z,84.77
2017-01-07T12:51:44.582Z,85.05
2017-01-07T12:52:53.277Z,85.15
2017-01-07T12:54:01.967Z,84.49
2017-01-07T12:55:10.659Z,83.73
2017-01-07T12:56:19.346Z,83.83
2017-01-07T12:57:28.035Z,83.07
2017-01-07T12:58:36.726Z,82.98
2017-01-07T12:59:45.416Z,82.88
2017-01-07T13:00:54.104Z,83.07
2017-01-07T13:02:02.801Z,83.26
2017-01-07T13:03:11.493Z,83.07
2017-01-07T13:04:20.177Z,83.07
2017-01-07T13:05:28.864Z,82.88
2017-01-07T13:06:37.553Z,82.88
2017-01-07T13:07:46.239Z,82.79
2017-01-07T13:08:54.930Z,83.17
2017-01-07T13:10:03.623Z,83.07
2017-01-07T13:11:12.338Z,83.07
2017-01-07T13:12:21.032Z,82.88
2017-01-07T13:13:29.719Z,82.88
2017-01-07T13:14:38.409Z,83.07
2017-01-07T13:15:47.101Z,83.73
2017-01-07T13:16:55.792Z,83.92
2017-01-07T13:18:04.491Z,84.58
2017-01-07T13:19:13.183Z,84.73
2017-01-07T13:20:21.871Z,85.68
2017-01-07T13:21:30.578Z,85.96
2017-01-07T13:22:39.268Z,85.77
2017-01-07T13:23:47.958Z,86.15
2017-01-07T13:24:56.684Z,86.62
2017-01-07T13:26:05.373Z,86.8
2017-01-07T13:27:14.064Z,86.99
2017-01-07T13:28:22.754Z,87.66
2017-01-07T13:29:31.440Z,87.28
2017-01-07T13:30:40.135Z,87.18
2017-01-07T13:31:48.825Z,88.32
2017-01-07T13:32:57.536Z,89.36
2017-01-07T13:34:06.224Z,88.84
2017-01-07T13:35:14.909Z,88.93
2017-01-07T13:36:23.598Z,88.75
2017-01-07T13:37:32.287Z,88.65
2017-01-07T13:38:40.974Z,88.65
2017-01-07T13:39:49.664Z,88.65
2017-01-07T13:40:58.353Z,88.84
2017-01-07T13:42:07.039Z,89.03
2017-01-07T13:43:15.732Z,89.69
2017-01-07T13:44:24.419Z,89.4
2017-01-07T13:45:33.103Z,89.59
2017-01-07T13:46:41.787Z,89.31
2017-01-07T13:47:50.478Z,89.22
2017-01-07T13:48:59.168Z,88.75
2017-01-07T13:50:07.850Z,89.4
2017-01-07T13:51:16.539Z,88.65
2017-01-07T13:52:25.224Z,89.31
2017-01-07T13:53:33.945Z,89.59
2017-01-07T13:54:42.632Z,89.22
2017-01-07T13:55:51.340Z,88.75
2017-01-07T13:57:00.025Z,89.31
2017-01-07T13:58:08.711Z,89.22
2017-01-07T13:59:17.399Z,89.22
2017-01-07T14:00:26.081Z,88.56
2017-01-07T14:01:34.770Z,88.75
2017-01-07T14:02:43.460Z,88.84
2017-01-07T14:03:52.171Z,88.37
2017-01-07T14:05:01.256Z,87.62
2017-01-07T14:06:09.943Z,87.24
2017-01-07T14:07:18.634Z,86.95
2017-01-07T14:08:27.324Z,88.46
2017-01-07T14:09:36.010Z,88.37
2017-01-07T14:10:44.700Z,88.28
2017-01-07T14:11:53.391Z,88.93
2017-01-07T14:13:02.076Z,89.22
2017-01-07T14:14:10.788Z,89.17
2017-01-07T14:15:19.472Z,89.4
2017-01-07T14:16:28.188Z,89.74
2017-01-07T14:17:37.279Z,89.93
2017-01-07T14:18:45.967Z,89.59
2017-01-07T14:19:54.649Z,89.78
2017-01-07T14:21:03.335Z,89.55
2017-01-07T14:22:12.022Z,88.65
2017-01-07T14:23:20.707Z,89.74
2017-01-07T14:24:29.402Z,89.83
2017-01-07T14:25:38.092Z,89.55
2017-01-07T14:26:46.777Z,89.17
2017-01-07T14:27:55.471Z,89.55
2017-01-07T14:29:04.157Z,88.98
2017-01-07T14:30:12.845Z,89.45
2017-01-07T14:31:21.531Z,89.83
2017-01-07T14:32:30.217Z,90.31
2017-01-07T14:33:38.932Z,90.97
2017-01-07T14:34:47.627Z,91.72
2017-01-07T14:35:56.312Z,91.91
2017-01-07T14:37:04.996Z,92.19
2017-01-07T14:38:13.690Z,92.38
2017-01-07T14:39:22.377Z,91.06
2017-01-07T14:40:31.060Z,90.87
2017-01-07T14:41:39.741Z,90.02
2017-01-07T14:42:48.449Z,90.21
2017-01-07T14:43:57.138Z,90.68
2017-01-07T14:45:05.819Z,91.06
2017-01-07T14:46:14.501Z,91.35
2017-01-07T14:47:23.189Z,91.44
2017-01-07T14:48:31.874Z,91.06